createdAt,value
2023-02-12T00:00:08.183Z,95957.34
2023-02-12T00:02:41.309Z,95966.56
2023-02-12T00:05:28.191Z,95956.63
2023-02-12T00:08:08.177Z,95949.97
2023-02-12T00:11:02.221Z,95972.69
2023-02-12T00:13:49.176Z,95973.47
2023-02-12T00:16:32.172Z,95971.84
2023-02-12T00:19:26.188Z,95982.00
2023-02-12T00:22:13.173Z,95983.59
2023-02-12T00:24:46.289Z,95978.56
2023-02-12T00:27:33.160Z,95983.53
2023-02-12T00:30:06.317Z,95989.44
2023-02-12T00:32:56.195Z,95991.09
2023-02-12T00:35:29.282Z,95979.41
2023-02-12T00:38:16.196Z,95991.09
2023-02-12T00:40:56.190Z,95991.22
2023-02-12T00:43:50.207Z,95985.44
2023-02-12T00:46:44.285Z,95988.94
2023-02-12T00:49:41.201Z,95993.97
2023-02-12T00:52:35.178Z,95984.81
2023-02-12T00:55:22.212Z,95984.09
2023-02-12T00:57:55.306Z,95990.00
2023-02-12T01:00:43.195Z,95986.56
2023-02-12T01:03:17.357Z,95993.31
2023-02-12T01:06:04.186Z,95977.31
2023-02-12T01:08:37.310Z,95982.41
2023-02-12T01:11:24.202Z,95980.69
2023-02-12T01:13:57.283Z,95988.25
2023-02-12T01:16:44.215Z,95972.28
2023-02-12T01:19:18.307Z,95972.31
2023-02-12T01:22:05.208Z,95969.81
2023-02-12T01:24:38.302Z,95975.69
2023-02-12T01:27:25.186Z,95984.03
2023-02-12T01:29:58.371Z,95979.84
2023-02-12T01:32:45.233Z,95982.34
2023-02-12T01:35:18.327Z,95984.19
2023-02-12T01:38:05.230Z,95990.91
2023-02-12T01:40:38.352Z,95994.22
2023-02-12T01:43:25.212Z,95987.53
2023-02-12T01:45:59.308Z,95989.16
2023-02-12T01:48:51.223Z,95996.88
2023-02-12T01:51:28.304Z,95992.72
2023-02-12T01:54:18.238Z,95998.53
2023-02-12T01:56:59.206Z,96010.31
2023-02-12T01:59:49.197Z,96014.38
2023-02-12T02:02:30.236Z,96016.06
2023-02-12T02:05:21.205Z,96016.00
2023-02-12T02:08:01.236Z,96020.19
2023-02-12T02:10:55.217Z,96014.44
2023-02-12T02:14:01.239Z,96019.50
2023-02-12T02:16:37.719Z,96028.78
2023-02-12T02:19:34.215Z,96029.72
2023-02-12T02:23:08.217Z,96024.75
2023-02-12T02:26:07.211Z,96020.53
2023-02-12T02:29:03.234Z,96027.34
2023-02-12T02:31:54.379Z,96032.47
2023-02-12T02:34:50.224Z,96029.94
2023-02-12T02:37:44.236Z,96037.59
2023-02-12T02:40:37.239Z,96038.41
2023-02-12T02:43:37.228Z,96046.84
2023-02-12T02:46:59.336Z,96061.97
2023-02-12T02:49:52.230Z,96061.06
2023-02-12T02:52:33.363Z,96072.72
2023-02-12T02:55:25.264Z,96071.91
2023-02-12T02:58:06.320Z,96072.84
2023-02-12T03:01:02.323Z,96071.22
2023-02-12T03:04:08.342Z,96070.34
2023-02-12T03:07:17.254Z,96081.25
2023-02-12T03:10:04.236Z,96084.53
2023-02-12T03:12:53.237Z,96083.63
2023-02-12T03:15:48.254Z,96093.78
2023-02-12T03:18:39.253Z,96095.41
2023-02-12T03:21:33.246Z,96094.63
2023-02-12T03:24:27.243Z,96111.44
2023-02-12T03:27:20.270Z,96110.47
2023-02-12T03:29:54.335Z,96109.53
2023-02-12T03:33:18.261Z,96120.34
2023-02-12T03:36:13.240Z,96129.72
2023-02-12T03:39:13.254Z,96125.38
2023-02-12T03:42:25.261Z,96126.22
2023-02-12T03:45:24.356Z,96142.19
2023-02-12T03:48:25.257Z,96140.59
2023-02-12T03:51:04.363Z,96144.84
2023-02-12T03:53:51.266Z,96139.75
2023-02-12T03:56:50.230Z,96148.22
2023-02-12T03:59:44.262Z,96150.69
2023-02-12T04:02:39.254Z,96159.00
2023-02-12T04:05:39.278Z,96169.00
2023-02-12T04:08:26.256Z,96171.53
2023-02-12T04:11:22.361Z,96165.59
2023-02-12T04:14:28.264Z,96174.84
2023-02-12T04:17:15.275Z,96183.25
2023-02-12T04:20:21.265Z,96180.75
2023-02-12T04:23:07.336Z,96184.94
2023-02-12T04:26:09.263Z,96186.59
2023-02-12T04:29:27.266Z,96187.47
2023-02-12T04:32:23.267Z,96195.72
2023-02-12T04:35:14.280Z,96209.16
2023-02-12T04:38:04.267Z,96209.91
2023-02-12T04:40:51.272Z,96215.66
2023-02-12T04:43:46.289Z,96218.00
2023-02-12T04:46:40.272Z,96221.38
2023-02-12T04:49:28.291Z,96220.47
2023-02-12T04:52:01.434Z,96226.31
2023-02-12T04:54:48.299Z,96238.94
2023-02-12T04:57:21.384Z,96238.13
2023-02-12T05:00:08.368Z,96254.06
2023-02-12T05:02:41.357Z,96266.66
2023-02-12T05:05:28.293Z,96254.91
2023-02-12T05:08:01.401Z,96260.72
2023-02-12T05:10:48.289Z,96277.50
2023-02-12T05:13:21.377Z,96267.28
2023-02-12T05:16:12.398Z,96267.28
2023-02-12T05:18:45.387Z,96278.25
2023-02-12T05:21:32.283Z,96280.59
2023-02-12T05:24:05.398Z,96291.56
2023-02-12T05:26:52.279Z,96295.00
2023-02-12T05:29:25.412Z,96285.69
2023-02-12T05:32:13.414Z,96289.13
2023-02-12T05:34:46.390Z,96290.00
2023-02-12T05:37:33.298Z,96284.91
2023-02-12T05:40:12.393Z,96297.63
2023-02-12T05:42:59.300Z,96301.81
2023-02-12T05:45:39.291Z,96310.97
2023-02-12T05:48:33.322Z,96310.97
2023-02-12T05:51:33.301Z,96331.25
2023-02-12T05:54:27.284Z,96338.03
2023-02-12T05:57:14.320Z,96343.00
2023-02-12T05:59:54.303Z,96344.69
2023-02-12T06:02:49.292Z,96355.63
2023-02-12T06:05:36.286Z,96354.94
2023-02-12T06:08:16.293Z,96357.31
2023-02-12T06:11:13.302Z,96362.25
2023-02-12T06:14:07.334Z,96360.59
2023-02-12T06:17:01.307Z,96363.00
2023-02-12T06:19:34.392Z,96363.78
2023-02-12T06:22:21.328Z,96366.31
2023-02-12T06:25:01.299Z,96367.13
2023-02-12T06:27:48.350Z,96381.44
2023-02-12T06:30:22.940Z,96381.41
2023-02-12T06:33:09.292Z,96400.09
2023-02-12T06:35:50.321Z,96387.38
2023-02-12T06:38:44.331Z,96394.88
2023-02-12T06:41:31.313Z,96405.06
2023-02-12T06:44:04.407Z,96405.06
2023-02-12T06:46:51.402Z,96406.81
2023-02-12T06:49:24.423Z,96415.28
2023-02-12T06:52:11.306Z,96418.66
2023-02-12T06:54:44.426Z,96417.00
2023-02-12T06:57:31.340Z,96428.81
2023-02-12T07:00:04.432Z,96435.66
2023-02-12T07:02:51.362Z,96447.34
2023-02-12T07:05:31.306Z,96454.97
2023-02-12T07:08:25.335Z,96459.75
2023-02-12T07:11:19.314Z,96455.56
2023-02-12T07:14:06.340Z,96455.00
2023-02-12T07:16:46.442Z,96460.19
2023-02-12T07:19:33.330Z,96478.03
2023-02-12T07:22:06.433Z,96472.09
2023-02-12T07:24:53.315Z,96477.16
2023-02-12T07:27:33.352Z,96476.22
2023-02-12T07:30:20.336Z,96480.56
2023-02-12T07:32:53.452Z,96486.56
2023-02-12T07:35:40.330Z,96494.31
2023-02-12T07:38:13.475Z,96496.09
2023-02-12T07:41:00.334Z,96492.66
2023-02-12T07:43:33.431Z,96496.06
2023-02-12T07:46:36.360Z,96497.16
2023-02-12T07:49:35.328Z,96494.56
2023-02-12T07:52:29.355Z,96491.38
2023-02-12T07:55:16.354Z,96493.06
2023-02-12T07:57:49.482Z,96488.84
2023-02-12T08:00:36.345Z,96491.22
2023-02-12T08:03:16.343Z,96488.72
2023-02-12T08:06:03.360Z,96502.44
2023-02-12T08:08:38.848Z,96506.06
2023-02-12T08:11:25.352Z,96506.91
2023-02-12T08:14:06.368Z,96501.19
2023-02-12T08:16:54.447Z,96507.56
2023-02-12T08:19:35.365Z,96511.06
2023-02-12T08:22:29.344Z,96512.56
2023-02-12T08:25:19.359Z,96518.91
2023-02-12T08:27:52.437Z,96519.66
2023-02-12T08:30:39.452Z,96522.22
2023-02-12T08:33:19.366Z,96519.78
2023-02-12T08:36:35.374Z,96528.00
2023-02-12T08:39:23.369Z,96521.38
2023-02-12T08:42:04.361Z,96528.13
2023-02-12T08:44:58.363Z,96530.88
2023-02-12T08:47:52.368Z,96536.97
2023-02-12T08:50:40.384Z,96537.47
2023-02-12T08:53:20.370Z,96535.88
2023-02-12T08:56:14.347Z,96540.84
2023-02-12T08:59:01.355Z,96545.91
2023-02-12T09:01:43.537Z,96554.88
2023-02-12T09:04:32.370Z,96560.47
2023-02-12T09:07:12.369Z,96571.25
2023-02-12T09:10:06.380Z,96577.16
2023-02-12T09:12:53.373Z,96579.16
2023-02-12T09:15:26.473Z,96584.13
2023-02-12T09:18:13.367Z,96589.94
2023-02-12T09:20:49.452Z,96596.03
2023-02-12T09:23:36.389Z,96601.16
2023-02-12T09:26:15.466Z,96609.47
2023-02-12T09:29:02.359Z,96618.06
2023-02-12T09:31:37.607Z,96625.81
2023-02-12T09:34:27.360Z,96626.16
2023-02-12T09:37:07.379Z,96624.94
2023-02-12T09:39:54.387Z,96629.53
2023-02-12T09:42:38.384Z,96630.16
2023-02-12T09:45:29.361Z,96629.41
2023-02-12T09:48:20.470Z,96639.38
2023-02-12T09:51:13.402Z,96647.03
2023-02-12T09:53:57.379Z,96645.44
2023-02-12T09:56:53.388Z,96652.75
2023-02-12T09:59:45.380Z,96643.53
2023-02-12T10:02:23.487Z,96652.16
2023-02-12T10:05:12.382Z,96648.00
2023-02-12T10:08:10.478Z,96658.75
2023-02-12T10:11:00.394Z,96652.44
2023-02-12T10:13:42.489Z,96653.47
2023-02-12T10:16:44.396Z,96662.06
2023-02-12T10:19:49.483Z,96663.19
2023-02-12T10:22:57.086Z,96662.44
2023-02-12T10:26:09.399Z,96658.22
2023-02-12T10:29:04.407Z,96656.06
2023-02-12T10:34:43.419Z,96663.88
2023-02-12T10:37:54.389Z,96657.00
2023-02-12T10:40:44.389Z,96665.50
2023-02-12T10:43:19.509Z,96658.97
2023-02-12T10:46:06.398Z,96665.28
2023-02-12T10:48:45.718Z,96667.31
2023-02-12T10:52:03.392Z,96673.69
2023-02-12T10:54:52.409Z,96668.59
2023-02-12T10:57:46.404Z,96668.91
2023-02-12T11:00:42.413Z,96661.38
2023-02-12T11:03:25.400Z,96664.00
2023-02-12T11:06:26.402Z,96663.91
2023-02-12T11:09:41.411Z,96668.81
2023-02-12T11:12:56.396Z,96667.91
2023-02-12T11:15:53.471Z,96669.69
2023-02-12T11:18:43.418Z,96675.28
2023-02-12T11:21:37.420Z,96672.50
2023-02-12T11:24:33.406Z,96680.38
2023-02-12T11:27:21.552Z,96697.50
2023-02-12T11:30:20.415Z,96691.69
2023-02-12T11:32:54.599Z,96692.91
2023-02-12T11:35:42.421Z,96697.03
2023-02-12T11:38:29.558Z,96697.28
2023-02-12T11:41:29.443Z,96700.94
2023-02-12T11:44:37.431Z,96698.56
2023-02-12T11:47:34.442Z,96700.16
2023-02-12T11:50:46.438Z,96689.06
2023-02-12T11:53:39.435Z,96690.56
2023-02-12T11:56:22.418Z,96689.16
2023-02-12T11:59:45.440Z,96691.69
2023-02-12T12:02:48.445Z,96699.25
2023-02-12T12:05:45.436Z,96696.13
2023-02-12T12:08:32.540Z,96684.06
2023-02-12T12:11:54.438Z,96691.66
2023-02-12T12:14:58.476Z,96696.94
2023-02-12T12:18:10.425Z,96699.66
2023-02-12T12:20:57.433Z,96711.38
2023-02-12T12:23:55.422Z,96709.69
2023-02-12T12:26:37.430Z,96702.09
2023-02-12T12:29:40.441Z,96708.94
2023-02-12T12:32:31.438Z,96702.03
2023-02-12T12:35:04.596Z,96696.13
2023-02-12T12:38:40.459Z,96694.59
2023-02-12T12:41:48.439Z,96699.25
2023-02-12T12:44:45.489Z,96704.63
2023-02-12T12:47:51.452Z,96699.50
2023-02-12T12:50:38.430Z,96687.94
2023-02-12T12:53:44.445Z,96693.19
2023-02-12T12:56:46.481Z,96690.91
2023-02-12T12:59:38.594Z,96684.16
2023-02-12T13:02:51.470Z,96681.19
2023-02-12T13:05:34.441Z,96676.66
2023-02-12T13:08:36.460Z,96673.03
2023-02-12T13:11:15.565Z,96681.22
2023-02-12T13:14:29.453Z,96680.88
2023-02-12T13:17:32.602Z,96692.53
2023-02-12T13:20:38.475Z,96689.34
2023-02-12T13:23:23.590Z,96694.69
2023-02-12T13:26:15.469Z,96698.34
2023-02-12T13:29:00.462Z,96697.84
2023-02-12T13:32:41.415Z,96698.03
2023-02-12T13:35:28.469Z,96702.97
2023-02-12T13:38:27.468Z,96706.22
2023-02-12T13:41:17.465Z,96709.44
2023-02-12T13:44:08.467Z,96715.25
2023-02-12T13:47:10.471Z,96705.66
2023-02-12T13:50:07.478Z,96712.25
2023-02-12T13:52:55.578Z,96709.47
2023-02-12T13:55:54.903Z,96707.75
2023-02-12T13:58:45.474Z,96712.59
2023-02-12T14:02:06.476Z,96714.75
2023-02-12T14:05:02.489Z,96720.53
2023-02-12T14:07:51.563Z,96722.03
2023-02-12T14:10:42.478Z,96727.75
2023-02-12T14:13:21.657Z,96724.16
2023-02-12T14:16:44.488Z,96726.56
2023-02-12T14:19:50.492Z,96734.84
2023-02-12T14:22:44.491Z,96734.59
2023-02-12T14:25:31.486Z,96731.06
2023-02-12T14:28:13.661Z,96727.41
2023-02-12T14:31:25.621Z,96741.69
2023-02-12T14:34:26.468Z,96734.72
2023-02-12T14:37:19.486Z,96739.78
2023-02-12T14:39:59.472Z,96742.41
2023-02-12T14:42:46.489Z,96729.88
2023-02-12T14:45:50.489Z,96723.19
2023-02-12T14:48:59.525Z,96729.06
2023-02-12T14:52:13.506Z,96727.28
2023-02-12T14:55:19.550Z,96732.91
2023-02-12T14:58:10.484Z,96729.44
2023-02-12T15:00:46.602Z,96734.38
2023-02-12T15:04:08.478Z,96731.50
2023-02-12T15:06:56.470Z,96728.06
2023-02-12T15:10:00.518Z,96724.53
2023-02-12T15:13:15.499Z,96732.09
2023-02-12T15:16:10.526Z,96721.88
2023-02-12T15:19:18.621Z,96735.06
2023-02-12T15:22:06.503Z,96734.84
2023-02-12T15:24:39.627Z,96739.03
2023-02-12T15:27:28.516Z,96744.16
2023-02-12T15:30:10.441Z,96733.06
2023-02-12T15:33:05.499Z,96736.38
2023-02-12T15:35:59.668Z,96736.22
2023-02-12T15:38:48.551Z,96747.09
2023-02-12T15:41:46.697Z,96755.31
2023-02-12T15:44:43.527Z,96750.22
2023-02-12T15:47:26.220Z,96759.19
2023-02-12T15:50:12.514Z,96757.31
2023-02-12T15:52:49.682Z,96755.59
2023-02-12T15:55:42.527Z,96756.41
2023-02-12T15:58:33.517Z,96755.31
2023-02-12T16:01:57.592Z,96756.19
2023-02-12T16:04:51.527Z,96755.06
2023-02-12T16:07:49.551Z,96771.75
2023-02-12T16:10:36.518Z,96774.91
2023-02-12T16:13:10.705Z,96770.41
2023-02-12T16:16:19.542Z,96775.22
2023-02-12T16:18:59.501Z,96776.66
2023-02-12T16:21:53.534Z,96777.31
2023-02-12T16:24:51.520Z,96788.03
2023-02-12T16:27:36.734Z,96783.63
2023-02-12T16:30:45.527Z,96783.41
2023-02-12T16:34:05.975Z,96789.00
2023-02-12T16:37:00.527Z,96789.56
2023-02-12T16:40:09.547Z,96789.34
2023-02-12T16:43:10.616Z,96788.09
2023-02-12T16:45:59.036Z,96799.81
2023-02-12T16:48:34.412Z,96795.31
2023-02-12T16:51:35.596Z,96795.25
2023-02-12T16:54:18.530Z,96801.06
2023-02-12T16:57:13.522Z,96808.47
2023-02-12T17:00:00.625Z,96809.94
2023-02-12T17:02:36.186Z,96818.91
2023-02-12T17:05:24.824Z,96817.81
2023-02-12T17:07:57.685Z,96816.03
2023-02-12T17:10:44.605Z,96817.59
2023-02-12T17:13:19.122Z,96813.19
2023-02-12T17:16:11.251Z,96813.03
2023-02-12T17:18:46.778Z,96814.50
2023-02-12T17:21:44.620Z,96811.84
2023-02-12T17:24:33.556Z,96817.59
2023-02-12T17:27:27.633Z,96808.19
2023-02-12T17:30:22.546Z,96811.97
2023-02-12T17:33:09.559Z,96812.75
2023-02-12T17:35:51.550Z,96815.91
2023-02-12T17:38:45.582Z,96814.97
2023-02-12T17:41:32.684Z,96817.28
2023-02-12T17:44:13.556Z,96809.59
2023-02-12T17:47:07.559Z,96816.09
2023-02-12T17:50:01.603Z,96823.56
2023-02-12T17:52:55.556Z,96821.78
2023-02-12T17:55:46.555Z,96811.47
2023-02-12T17:58:19.745Z,96818.81
2023-02-12T18:01:11.571Z,96821.09
2023-02-12T18:03:45.692Z,96826.91
2023-02-12T18:06:35.571Z,96821.78
2023-02-12T18:09:15.555Z,96828.22
2023-02-12T18:12:02.624Z,96824.41
2023-02-12T18:14:42.625Z,96818.28
2023-02-12T18:17:29.563Z,96822.34
2023-02-12T18:20:03.682Z,96813.78
2023-02-12T18:22:51.562Z,96809.38
2023-02-12T18:25:31.569Z,96805.06
2023-02-12T18:28:18.658Z,96809.03
2023-02-12T18:30:59.069Z,96800.38
2023-02-12T18:33:45.618Z,96804.38
2023-02-12T18:36:21.779Z,96808.28
2023-02-12T18:39:08.800Z,96810.53
2023-02-12T18:41:41.682Z,96798.66
2023-02-12T18:44:29.576Z,96797.53
2023-02-12T18:47:03.110Z,96805.00
2023-02-12T18:49:56.617Z,96808.09
2023-02-12T18:52:50.706Z,96805.44
2023-02-12T18:55:37.565Z,96812.00
2023-02-12T18:58:10.707Z,96808.44
2023-02-12T19:00:57.961Z,96808.28
2023-02-12T19:03:31.708Z,96807.22
2023-02-12T19:06:19.593Z,96809.56
2023-02-12T19:08:52.738Z,96820.31
2023-02-12T19:11:40.615Z,96819.25
2023-02-12T19:14:20.612Z,96819.84
2023-02-12T19:17:14.617Z,96817.91
2023-02-12T19:20:08.625Z,96822.78
2023-02-12T19:22:55.574Z,96822.50
2023-02-12T19:25:28.756Z,96820.69
2023-02-12T19:28:19.701Z,96831.31
2023-02-12T19:30:52.866Z,96823.53
2023-02-12T19:33:39.560Z,96826.56
2023-02-12T19:36:21.587Z,96823.16
2023-02-12T19:39:12.616Z,96830.59
2023-02-12T19:41:47.004Z,96825.31
2023-02-12T19:44:33.575Z,96824.38
2023-02-12T19:47:06.884Z,96825.91
2023-02-12T19:49:53.649Z,96827.34
2023-02-12T19:52:33.571Z,96830.47
2023-02-12T19:55:27.660Z,96830.22
2023-02-12T19:58:15.587Z,96831.66
2023-02-12T20:00:49.742Z,96830.69
2023-02-12T20:03:36.623Z,96827.13
2023-02-12T20:06:16.757Z,96836.28
2023-02-12T20:09:04.629Z,96835.94
2023-02-12T20:11:40.917Z,96842.50
2023-02-12T20:14:29.653Z,96838.06
2023-02-12T20:17:06.080Z,96837.00
2023-02-12T20:19:52.623Z,96840.88
2023-02-12T20:22:25.877Z,96838.09
2023-02-12T20:25:13.603Z,96855.44
2023-02-12T20:27:53.642Z,96857.94
2023-02-12T20:30:47.603Z,96860.16
2023-02-12T20:33:34.630Z,96851.69
2023-02-12T20:36:08.067Z,96845.78
2023-02-12T20:38:58.719Z,96845.59
2023-02-12T20:41:43.653Z,96850.50
2023-02-12T20:44:30.626Z,96851.28
2023-02-12T20:47:03.812Z,96838.66
2023-02-12T20:49:50.624Z,96838.38
2023-02-12T20:52:23.736Z,96848.41
2023-02-12T20:55:10.631Z,96835.69
2023-02-12T20:57:43.738Z,96841.47
2023-02-12T21:00:30.619Z,96843.78
2023-02-12T21:03:04.678Z,96854.38
2023-02-12T21:05:51.637Z,96854.94
2023-02-12T21:08:24.757Z,96850.84
2023-02-12T21:11:14.679Z,96848.41
2023-02-12T21:14:02.525Z,96840.88
2023-02-12T21:16:57.684Z,96840.88
2023-02-12T21:19:44.620Z,96843.31
2023-02-12T21:22:24.616Z,96839.94
2023-02-12T21:25:11.687Z,96843.22
2023-02-12T21:27:51.636Z,96833.03
2023-02-12T21:30:40.619Z,96830.22
2023-02-12T21:33:13.734Z,96828.47
2023-02-12T21:36:00.618Z,96831.84
2023-02-12T21:38:34.710Z,96828.41
2023-02-12T21:41:29.635Z,96824.03
2023-02-12T21:44:05.850Z,96829.03
2023-02-12T21:46:52.661Z,96829.66
2023-02-12T21:49:33.651Z,96842.06
2023-02-12T21:52:27.636Z,96838.59
2023-02-12T21:55:14.614Z,96839.25
2023-02-12T21:57:47.751Z,96844.09
2023-02-12T22:00:34.656Z,96845.69
2023-02-12T22:03:07.733Z,96852.22
2023-02-12T22:05:54.624Z,96852.03
2023-02-12T22:08:27.732Z,96852.16
2023-02-12T22:11:17.678Z,96847.03
2023-02-12T22:13:50.790Z,96848.56
2023-02-12T22:16:38.664Z,96855.91
2023-02-12T22:19:18.636Z,96860.03
2023-02-12T22:22:05.638Z,96855.13
2023-02-12T22:24:45.685Z,96861.75
2023-02-12T22:27:32.652Z,96862.31
2023-02-12T22:30:05.719Z,96862.31
2023-02-12T22:32:54.636Z,96855.50
2023-02-12T22:35:27.723Z,96856.06
2023-02-12T22:38:14.633Z,96861.72
2023-02-12T22:40:47.717Z,96860.75
2023-02-12T22:43:42.628Z,96860.69
2023-02-12T22:46:25.682Z,96868.09
2023-02-12T22:49:19.669Z,96873.53
2023-02-12T22:52:13.681Z,96865.16
2023-02-12T22:55:07.797Z,96867.47
2023-02-12T22:58:01.676Z,96869.88
2023-02-12T23:00:58.731Z,96878.16
2023-02-12T23:03:46.705Z,96871.22
2023-02-12T23:06:22.763Z,96872.75
2023-02-12T23:09:14.608Z,96877.44
2023-02-12T23:11:47.846Z,96870.59
2023-02-12T23:14:34.614Z,96878.97
2023-02-12T23:17:11.092Z,96874.63
2023-02-12T23:19:57.686Z,96887.13
2023-02-12T23:22:30.740Z,96875.38
2023-02-12T23:25:17.693Z,96876.28
2023-02-12T23:27:50.804Z,96878.66
2023-02-12T23:30:37.736Z,96873.66
2023-02-12T23:33:18.714Z,96868.53
2023-02-12T23:36:12.718Z,96874.44
2023-02-12T23:39:06.727Z,96864.44
2023-02-12T23:42:00.643Z,96870.19
2023-02-12T23:44:47.783Z,96871.16
2023-02-12T23:47:20.782Z,96879.13
2023-02-12T23:50:07.717Z,96874.69
2023-02-12T23:52:40.781Z,96879.78
2023-02-12T23:55:27.706Z,96880.97
2023-02-12T23:58:03.111Z,96880.38
